LDZA/ZAG METAR and TAF weather

Enter ICAO airport designator
Station Type Date Time Source
LDZA METAR 2020/02/29 02:30 UTC NOAA

LDZA 290230Z 01001KT CAVOK M03/M06 Q1020 NOSIG


Station Type Date Time Source
LDZA Decoded METAR 2020/02/29 02:30 UTC NOAA

Zagreb / Pleso, Croatia (LDZA) 45-44N 016-04E 107M
Feb 28, 2020 - 09:30 PM EST / 2020.02.29 0230 UTC
Wind: from the N (010 degrees) at 1 MPH (1 KT):0
Visibility: greater than 7 mile(s):0
Temperature: 26 F (-3 C)
Dew Point: 21 F (-6 C)
Relative Humidity: 79%
Pressure (altimeter): 30.12 in. Hg (1020 hPa)
ob: LDZA 290230Z 01001KT CAVOK M03/M06 Q1020 NOSIG
cycle: 2

Station Type Date Time Source
LDZA TAF 2020/02/28 18:27 UTC NOAA

TAF LDZA 281725Z 2818/2918 01012KT CAVOK TX13/2913Z TNM03/2904Z
BECMG 2819/2821 VRB02KT
BECMG 2909/2912 22015KT
TEMPO 2913/2918 22020G35KT

Example: see airport list